Time;durP1;ratioP1;P1;durP2;ratioP2;P2;SDS_P1;SDS_P2;PMS_P1;PMS_P2;Temp;Humidity;BMP_temperature;BMP_pressure;BME280_temperature;BME280_humidity;BME280_pressure;Samples;Min_cycle;Max_cycle;Signal;HPM_P1;HPM_P2
2021/09/08 00:00:38;;;;;;;26.73;5.97;;;;;;;11.34;82.03;93853.56;5069374;28;20416;-74
2021/09/08 00:03:05;;;;;;;21.02;5.20;;;;;;;11.33;82.02;93850.19;5069194;28;20139;-75
2021/09/08 00:05:32;;;;;;;19.40;6.32;;;;;;;10.97;85.37;93853.91;5069453;28;20555;-76
2021/09/08 00:08:00;;;;;;;23.35;5.90;;;;;;;11.11;83.88;93852.13;5069083;28;20048;-75
2021/09/08 00:10:27;;;;;;;22.65;5.75;;;;;;;11.07;84.04;93850.97;5068988;28;20580;-75
2021/09/08 00:12:54;;;;;;;29.67;5.70;;;;;;;11.03;84.21;93852.34;5069333;28;20055;-75
2021/09/08 00:15:21;;;;;;;22.20;6.40;;;;;;;11.01;84.54;93849.97;5072602;28;20500;-75
2021/09/08 00:17:48;;;;;;;22.45;7.28;;;;;;;11.00;84.42;93845.81;5073342;28;20045;-75
2021/09/08 00:20:16;;;;;;;26.35;6.13;;;;;;;11.00;83.88;93843.25;5081050;28;20044;-75
2021/09/08 00:22:43;;;;;;;18.88;5.13;;;;;;;11.02;84.09;93843.81;5093229;28;20146;-75
2021/09/08 00:25:13;;;;;;;23.08;5.93;;;;;;;10.90;86.26;93856.47;5087388;28;20837;-76
2021/09/08 00:27:40;;;;;;;22.58;5.82;;;;;;;10.90;85.73;93845.41;5073067;28;20045;-76
2021/09/08 00:30:09;;;;;;;16.23;4.90;;;;;;;10.80;85.51;93843.22;5073401;28;20059;-76
2021/09/08 00:32:35;;;;;;;22.55;6.03;;;;;;;10.94;84.70;93856.88;5071582;28;20460;-76
2021/09/08 00:35:02;;;;;;;18.98;5.55;;;;;;;10.85;84.57;93840.06;5072805;28;20049;-75
2021/09/08 00:37:29;;;;;;;25.05;6.50;;;;;;;10.91;84.59;93864.97;5072946;28;20049;-76
2021/09/08 00:39:56;;;;;;;18.52;6.18;;;;;;;10.87;84.37;93849.16;5072485;28;20513;-76
2021/09/08 00:42:24;;;;;;;21.67;6.15;;;;;;;10.89;83.95;93848.97;5072737;28;20045;-76
2021/09/08 00:44:51;;;;;;;29.92;6.25;;;;;;;10.91;83.72;93862.41;5072474;28;20048;-76
2021/09/08 00:47:18;;;;;;;26.05;6.18;;;;;;;10.89;83.17;93854.09;5072572;28;20060;-76
2021/09/08 00:49:46;;;;;;;20.83;5.88;;;;;;;10.81;84.13;93852.50;5072304;28;20051;-76
2021/09/08 00:52:14;;;;;;;27.00;6.65;;;;;;;10.77;84.19;93857.25;5072419;28;20501;-76
2021/09/08 00:54:46;;;;;;;24.42;6.47;;;;;;;10.68;83.96;93835.28;5072374;28;20458;-75
2021/09/08 00:57:13;;;;;;;22.73;7.15;;;;;;;10.78;83.68;93858.81;5072274;28;20052;-75
2021/09/08 00:59:43;;;;;;;19.90;5.85;;;;;;;10.15;87.97;93852.06;5072548;28;20118;-75
2021/09/08 01:02:11;;;;;;;23.38;6.57;;;;;;;10.33;86.68;93843.06;5072376;28;20053;-75
2021/09/08 01:04:38;;;;;;;15.70;6.18;;;;;;;10.35;87.05;93854.72;5072427;28;20066;-75
2021/09/08 01:07:06;;;;;;;19.73;5.60;;;;;;;10.31;87.16;93863.00;5071896;28;20489;-75
2021/09/08 01:09:33;;;;;;;22.98;6.00;;;;;;;10.40;87.02;93854.13;5072358;28;20048;-75
2021/09/08 01:12:01;;;;;;;17.83;6.20;;;;;;;10.26;86.80;93823.28;5072552;28;20059;-75
2021/09/08 01:14:28;;;;;;;16.92;5.40;;;;;;;10.50;86.06;93861.50;5071892;28;20619;-75
2021/09/08 01:16:58;;;;;;;12.60;5.30;;;;;;;10.52;85.75;93851.84;5072147;28;20044;-75
2021/09/08 01:19:24;;;;;;;14.90;5.10;;;;;;;10.59;85.35;93846.72;5072560;28;20044;-75
2021/09/08 01:21:52;;;;;;;22.90;6.82;;;;;;;10.68;85.34;93856.63;5091989;28;20051;-75
2021/09/08 01:24:22;;;;;;;18.80;6.28;;;;;;;10.71;84.92;93858.03;5092011;28;20044;-75
2021/09/08 01:26:50;;;;;;;26.65;6.60;;;;;;;10.67;84.65;93847.34;5064235;28;20111;-76
2021/09/08 01:29:17;;;;;;;17.65;6.90;;;;;;;10.63;85.19;93853.03;5051034;28;20048;-76
2021/09/08 01:31:44;;;;;;;22.35;6.03;;;;;;;10.47;85.36;93844.72;5051714;28;20049;-75
2021/09/08 01:34:10;;;;;;;16.75;5.70;;;;;;;10.55;85.41;93854.00;5051104;28;20075;-75
2021/09/08 01:36:39;;;;;;;15.52;5.50;;;;;;;10.45;85.91;93845.91;5052128;28;20052;-75
2021/09/08 01:39:06;;;;;;;15.35;5.25;;;;;;;10.41;86.57;93858.28;5060153;28;20043;-76
2021/09/08 01:41:34;;;;;;;21.05;5.82;;;;;;;10.33;86.65;93846.44;5059728;28;20413;-75
2021/09/08 01:44:01;;;;;;;19.48;6.32;;;;;;;10.35;86.94;93857.28;5062593;28;20397;-75
2021/09/08 01:46:29;;;;;;;15.85;6.65;;;;;;;10.39;87.49;93852.56;5062249;28;20057;-75
2021/09/08 01:48:56;;;;;;;20.52;5.95;;;;;;;10.36;87.55;93846.03;5063611;28;20072;-75
2021/09/08 01:51:23;;;;;;;22.08;6.53;;;;;;;10.36;88.09;93848.59;5071622;28;20102;-75
2021/09/08 01:53:49;;;;;;;17.27;5.55;;;;;;;10.41;87.18;93846.25;5071247;28;20513;-75
2021/09/08 01:56:16;;;;;;;18.92;5.72;;;;;;;10.41;87.33;93841.09;5071245;28;20489;-75
2021/09/08 01:58:45;;;;;;;17.95;6.20;;;;;;;10.44;87.21;93824.56;5071057;28;20501;-76
2021/09/08 02:01:12;;;;;;;19.63;6.97;;;;;;;10.45;87.57;93838.97;5070985;28;20055;-76
2021/09/08 02:03:39;;;;;;;19.40;5.38;;;;;;;10.50;86.73;93841.75;5071292;28;20044;-76
2021/09/08 02:06:20;;;;;;;16.42;5.97;;;;;;;10.27;87.96;93818.91;5070863;28;20052;-75
2021/09/08 02:08:47;;;;;;;22.00;6.80;;;;;;;10.16;88.17;93818.50;5071419;28;20123;-75
2021/09/08 02:11:13;;;;;;;23.50;7.32;;;;;;;10.29;87.85;93829.81;5070838;28;20056;-75
2021/09/08 02:13:40;;;;;;;19.20;7.03;;;;;;;10.18;88.29;93820.88;5070898;28;20106;-75
2021/09/08 02:16:08;;;;;;;19.33;6.15;;;;;;;10.12;88.33;93813.94;5071267;28;20048;-75
2021/09/08 02:18:35;;;;;;;18.65;6.32;;;;;;;10.27;87.76;93832.56;5070810;28;20052;-75
2021/09/08 02:21:02;;;;;;;17.50;5.57;;;;;;;10.32;87.42;93824.28;5070738;28;20063;-75
2021/09/08 02:23:29;;;;;;;17.25;6.30;;;;;;;10.24;88.07;93830.38;5070929;28;20044;-75
2021/09/08 02:25:56;;;;;;;19.52;6.68;;;;;;;10.25;87.44;93810.63;5070823;28;20048;-75
2021/09/08 02:28:23;;;;;;;19.67;6.75;;;;;;;10.29;87.67;93819.53;5070444;28;20048;-75
2021/09/08 02:30:50;;;;;;;19.13;6.03;;;;;;;10.25;87.46;93808.88;5070746;28;20048;-75
2021/09/08 02:33:19;;;;;;;13.82;5.80;;;;;;;10.28;87.47;93820.53;5070699;28;20410;-75
2021/09/08 02:35:45;;;;;;;23.25;7.38;;;;;;;10.18;88.25;93823.44;5070287;28;20044;-75
2021/09/08 02:38:12;;;;;;;18.17;6.18;;;;;;;10.18;88.43;93812.38;5070278;28;20067;-75
2021/09/08 02:40:39;;;;;;;19.40;6.53;;;;;;;10.15;88.30;93821.25;5070449;28;20048;-75
2021/09/08 02:43:06;;;;;;;16.48;5.82;;;;;;;10.15;87.83;93806.63;5070403;28;20048;-75
2021/09/08 02:45:32;;;;;;;17.75;6.90;;;;;;;10.17;88.15;93803.88;5070169;28;20098;-75
2021/09/08 02:47:59;;;;;;;17.73;6.78;;;;;;;10.22;87.50;93805.88;5070505;28;20045;-75
2021/09/08 02:50:27;;;;;;;17.92;6.53;;;;;;;10.22;87.63;93809.25;5070233;28;20109;-75
2021/09/08 02:52:54;;;;;;;16.83;6.03;;;;;;;10.21;87.39;93817.13;5070381;28;20048;-75
2021/09/08 02:55:21;;;;;;;14.90;6.38;;;;;;;10.21;87.50;93812.78;5070100;28;20461;-75
2021/09/08 02:57:48;;;;;;;15.30;5.93;;;;;;;10.23;87.80;93813.38;5070250;28;20044;-75
2021/09/08 03:00:16;;;;;;;15.70;5.97;;;;;;;10.12;87.45;93788.25;5070213;28;20056;-75
2021/09/08 03:02:44;;;;;;;14.20;6.40;;;;;;;10.23;87.85;93813.38;5069888;28;20059;-75
2021/09/08 03:05:12;;;;;;;14.38;5.88;;;;;;;10.19;87.74;93806.25;5069911;28;20080;-75
2021/09/08 03:07:40;;;;;;;14.32;6.15;;;;;;;10.08;88.41;93792.19;5069803;28;20551;-75
2021/09/08 03:10:07;;;;;;;14.60;5.82;;;;;;;10.06;88.67;93805.25;5070134;28;20048;-75
2021/09/08 03:12:34;;;;;;;13.80;6.28;;;;;;;10.10;88.31;93798.72;5069703;28;20528;-75
2021/09/08 03:15:00;;;;;;;15.98;6.28;;;;;;;10.10;88.65;93800.50;5058651;28;20041;-75
2021/09/08 03:17:27;;;;;;;14.73;6.38;;;;;;;10.07;89.19;93799.13;5069837;28;20456;-75
2021/09/08 03:19:54;;;;;;;15.07;6.25;;;;;;;10.05;90.18;93800.28;5069602;28;20045;-75
2021/09/08 03:22:21;;;;;;;14.23;6.22;;;;;;;10.08;89.50;93794.75;5069797;28;20056;-75
2021/09/08 03:24:49;;;;;;;15.50;6.20;;;;;;;10.11;88.99;93800.31;5069771;28;20048;-75
2021/09/08 03:27:16;;;;;;;20.27;6.65;;;;;;;10.13;88.61;93803.47;5069507;28;20456;-75
2021/09/08 03:29:43;;;;;;;18.90;6.72;;;;;;;10.17;88.59;93796.19;5069592;28;20056;-75
2021/09/08 03:32:10;;;;;;;21.83;6.65;;;;;;;10.09;88.54;93788.66;5069694;28;20409;-75
2021/09/08 03:34:37;;;;;;;23.77;6.45;;;;;;;10.10;88.81;93803.06;5069739;28;20060;-75
2021/09/08 03:37:04;;;;;;;16.73;6.90;;;;;;;9.85;89.10;93768.44;5069413;28;20051;-75
2021/09/08 03:39:31;;;;;;;19.90;6.78;;;;;;;10.05;89.66;93803.66;5069465;28;20044;-75
2021/09/08 03:41:59;;;;;;;16.73;6.55;;;;;;;10.01;89.96;93799.88;5069163;28;20045;-75
2021/09/08 03:44:26;;;;;;;17.98;7.10;;;;;;;9.97;90.46;93798.66;5069182;28;20114;-75
2021/09/08 03:46:53;;;;;;;27.85;7.90;;;;;;;10.02;90.03;93806.59;5069394;28;20063;-75
2021/09/08 03:49:19;;;;;;;17.65;7.20;;;;;;;10.02;89.89;93799.69;5068804;28;20474;-75
2021/09/08 03:51:46;;;;;;;20.13;7.15;;;;;;;10.02;91.04;93797.13;5069555;28;20056;-75
2021/09/08 03:54:13;;;;;;;18.75;7.05;;;;;;;10.01;90.50;93792.97;5069583;28;20071;-75
2021/09/08 03:56:40;;;;;;;15.70;6.68;;;;;;;10.08;90.76;93798.13;5069059;28;20053;-75
2021/09/08 03:59:08;;;;;;;22.63;6.70;;;;;;;10.06;90.71;93799.31;5069351;28;20037;-75
2021/09/08 04:01:35;;;;;;;16.85;7.63;;;;;;;10.00;90.73;93783.69;5068933;28;20048;-75
2021/09/08 04:04:02;;;;;;;20.80;6.68;;;;;;;9.98;nan;93789.97;5069113;28;20053;-75
2021/09/08 04:06:29;;;;;;;14.40;6.78;;;;;;;10.03;90.95;93788.44;5069030;28;20052;-75
2021/09/08 04:08:55;;;;;;;17.80;7.13;;;;;;;10.08;91.14;93793.00;5069232;28;20049;-75
2021/09/08 04:11:22;;;;;;;19.70;7.30;;;;;;;10.09;91.19;93791.22;5068798;28;20501;-75
2021/09/08 04:13:49;;;;;;;17.33;7.30;;;;;;;10.09;91.88;93789.44;5069225;28;20040;-75
2021/09/08 04:16:17;;;;;;;20.30;7.25;;;;;;;10.01;92.46;93782.69;5069251;28;20040;-75
2021/09/08 04:18:44;;;;;;;24.67;7.22;;;;;;;10.00;92.48;93777.78;5068739;28;20045;-75
2021/09/08 04:21:11;;;;;;;17.27;7.15;;;;;;;9.95;91.88;93769.84;5068801;28;20045;-75
2021/09/08 04:23:37;;;;;;;20.85;8.05;;;;;;;10.06;93.07;93782.13;5069070;28;20048;-75
2021/09/08 04:26:04;;;;;;;20.35;7.78;;;;;;;10.10;92.49;93785.88;5068748;28;20040;-75
2021/09/08 04:28:31;;;;;;;17.27;7.82;;;;;;;10.23;91.36;93787.72;5068776;28;20053;-75
2021/09/08 04:30:58;;;;;;;44.40;12.38;;;;;;;10.22;91.77;93782.75;5068698;28;20040;-75
2021/09/08 04:33:26;;;;;;;25.33;9.93;;;;;;;10.27;91.12;93788.09;5068888;28;20049;-75
2021/09/08 04:35:56;;;;;;;28.83;9.63;;;;;;;10.32;91.21;93790.88;5069018;28;20102;-75
2021/09/08 04:38:23;;;;;;;29.17;9.32;;;;;;;10.24;91.39;93773.88;5068557;28;20040;-75
2021/09/08 04:40:50;;;;;;;20.45;8.15;;;;;;;10.40;91.80;93789.94;5068533;28;20056;-75
2021/09/08 04:43:17;;;;;;;22.05;8.15;;;;;;;10.35;91.97;93795.66;5068823;28;20048;-75
2021/09/08 04:45:44;;;;;;;20.38;9.40;;;;;;;10.38;91.80;93794.47;5064423;28;20408;-75
2021/09/08 04:48:10;;;;;;;19.25;9.18;;;;;;;10.38;92.10;93795.25;5067627;28;20380;-76
2021/09/08 04:50:39;;;;;;;25.48;9.88;;;;;;;10.47;90.85;93797.69;5068576;28;20412;-75
2021/09/08 04:53:06;;;;;;;30.15;10.05;;;;;;;10.56;90.86;93792.16;5068715;28;20045;-75
2021/09/08 04:55:32;;;;;;;25.90;11.20;;;;;;;10.58;90.71;93799.69;5068428;28;20045;-75
2021/09/08 04:57:59;;;;;;;23.17;10.98;;;;;;;10.48;91.11;93776.16;5068730;28;20045;-75
2021/09/08 05:00:26;;;;;;;26.00;10.00;;;;;;;10.70;90.12;93802.50;5070352;28;20113;-75
2021/09/08 05:02:53;;;;;;;24.98;9.65;;;;;;;10.71;90.19;93793.78;5072325;28;20056;-75
2021/09/08 05:05:20;;;;;;;19.33;8.63;;;;;;;10.81;90.86;93806.25;5072379;28;20040;-75
2021/09/08 05:07:48;;;;;;;22.92;9.38;;;;;;;10.86;90.36;93797.94;5072092;28;20504;-75
2021/09/08 05:10:14;;;;;;;23.33;8.73;;;;;;;10.93;89.85;93799.53;5071951;28;20075;-75
2021/09/08 05:12:41;;;;;;;19.02;9.00;;;;;;;10.96;89.69;93796.56;5071974;28;20473;-75
2021/09/08 05:15:09;;;;;;;14.82;7.70;;;;;;;11.07;89.55;93805.47;5072113;28;20450;-75
2021/09/08 05:17:36;;;;;;;18.80;8.00;;;;;;;11.12;90.23;93799.75;5071994;28;20045;-75
2021/09/08 05:20:04;;;;;;;25.05;8.27;;;;;;;11.09;89.92;93795.78;5071693;28;20068;-75
2021/09/08 05:22:30;;;;;;;21.00;8.93;;;;;;;11.25;89.16;93804.06;5071619;28;20052;-75
2021/09/08 05:24:59;;;;;;;35.10;9.93;;;;;;;11.35;88.78;93806.25;5071796;28;20052;-75
2021/09/08 05:27:25;;;;;;;32.53;11.18;;;;;;;11.43;89.73;93802.69;5071631;28;20045;-75
2021/09/08 05:29:52;;;;;;;24.73;11.73;;;;;;;11.43;91.87;93793.19;5072000;28;20048;-76
2021/09/08 05:32:19;;;;;;;28.75;11.43;;;;;;;11.41;89.62;93790.03;5071746;28;20051;-76
2021/09/08 05:34:46;;;;;;;29.60;10.90;;;;;;;11.55;88.76;93793.38;5072106;28;20542;-76
2021/09/08 05:37:13;;;;;;;20.42;9.50;;;;;;;11.62;89.40;93799.28;5071824;28;20465;-75
2021/09/08 05:39:39;;;;;;;24.45;9.18;;;;;;;11.76;88.53;93797.47;5071770;28;20045;-76
2021/09/08 05:42:08;;;;;;;25.33;9.48;;;;;;;11.85;88.34;93790.31;5071293;28;20060;-76
2021/09/08 05:44:35;;;;;;;21.27;9.95;;;;;;;11.95;88.10;93796.84;5071459;28;20052;-76
2021/09/08 05:47:01;;;;;;;25.45;9.40;;;;;;;12.01;87.30;93781.38;5071661;28;20175;-76
2021/09/08 05:49:28;;;;;;;27.30;10.25;;;;;;;12.05;87.21;93768.91;5071705;28;20055;-76
2021/09/08 05:51:55;;;;;;;22.42;8.40;;;;;;;12.16;89.26;93772.63;5071559;28;20412;-76
2021/09/08 05:54:22;;;;;;;21.38;8.05;;;;;;;12.11;87.00;93762.13;5071507;28;20048;-76
2021/09/08 05:56:49;;;;;;;17.67;7.30;;;;;;;12.23;87.25;93767.44;5071454;28;20041;-76
2021/09/08 05:59:17;;;;;;;17.88;7.85;;;;;;;12.31;87.33;93769.00;5071554;28;20049;-76
2021/09/08 06:01:44;;;;;;;16.95;8.02;;;;;;;12.42;87.82;93768.34;5070892;28;20493;-76
2021/09/08 06:04:10;;;;;;;25.58;9.32;;;;;;;12.48;86.76;93777.00;5071309;28;20048;-76
2021/09/08 06:06:37;;;;;;;24.38;8.98;;;;;;;12.54;87.30;93776.19;5071350;28;20041;-75
2021/09/08 06:09:04;;;;;;;12.07;7.72;;;;;;;12.34;88.55;93740.22;5070812;28;20044;-75
2021/09/08 06:11:31;;;;;;;17.23;7.85;;;;;;;12.62;87.33;93764.84;5070216;28;20056;-76
2021/09/08 06:13:58;;;;;;;14.05;7.13;;;;;;;12.74;86.66;93768.34;5071190;28;20059;-76
2021/09/08 06:16:26;;;;;;;18.20;6.85;;;;;;;12.85;87.06;93760.91;5070933;28;20090;-76
2021/09/08 06:18:53;;;;;;;14.65;6.78;;;;;;;12.95;85.99;93759.44;5071040;28;20064;-76
2021/09/08 06:21:21;;;;;;;12.52;6.88;;;;;;;13.13;85.81;93751.97;5070849;28;20059;-76
2021/09/08 06:23:48;;;;;;;9.35;5.03;;;;;;;13.18;85.65;93767.59;5070629;28;20143;-76
2021/09/08 06:26:15;;;;;;;9.13;4.55;;;;;;;13.41;84.85;93779.91;5070934;28;20127;-76
2021/09/08 06:28:42;;;;;;;11.05;4.55;;;;;;;13.66;83.40;93776.50;5070592;28;20550;-76
2021/09/08 06:31:10;;;;;;;6.55;3.30;;;;;;;13.74;81.08;93768.50;5070486;28;20052;-76
2021/09/08 06:33:39;;;;;;;8.20;4.13;;;;;;;13.96;81.08;93786.13;5070776;28;20049;-76
2021/09/08 06:36:05;;;;;;;8.80;4.28;;;;;;;13.93;81.06;93763.31;5070301;28;20504;-76
2021/09/08 06:38:32;;;;;;;7.15;5.07;;;;;;;14.24;80.32;93784.81;5070687;28;20048;-76
2021/09/08 06:41:00;;;;;;;9.02;3.80;;;;;;;14.10;79.75;93773.06;5071437;28;20497;-76
2021/09/08 06:43:27;;;;;;;7.93;3.63;;;;;;;14.25;79.57;93763.13;5070512;28;20147;-76
2021/09/08 06:45:54;;;;;;;10.50;4.53;;;;;;;14.46;79.92;93773.19;5069983;28;20048;-76
2021/09/08 06:48:21;;;;;;;8.13;4.68;;;;;;;14.65;78.80;93779.13;5070513;28;20048;-76
2021/09/08 06:50:49;;;;;;;7.47;3.92;;;;;;;14.63;78.63;93784.50;5070201;28;20090;-76
2021/09/08 06:53:16;;;;;;;8.85;4.68;;;;;;;14.92;77.96;93786.53;5070093;28;20056;-76
2021/09/08 06:55:43;;;;;;;7.20;4.72;;;;;;;15.08;77.38;93790.25;5070120;28;20413;-76
2021/09/08 06:58:10;;;;;;;7.80;3.92;;;;;;;15.19;76.74;93781.72;5070249;28;20056;-76
2021/09/08 07:00:37;;;;;;;10.52;4.55;;;;;;;15.33;75.00;93784.09;5070221;28;20057;-76
2021/09/08 07:03:04;;;;;;;9.80;4.10;;;;;;;15.42;75.32;93792.31;5069728;28;20052;-76
2021/09/08 07:05:31;;;;;;;10.63;4.50;;;;;;;15.47;74.69;93788.03;5070096;28;20098;-76
2021/09/08 07:08:01;;;;;;;6.65;2.92;;;;;;;15.05;73.42;93791.47;5068420;28;20049;-77
2021/09/08 07:10:28;;;;;;;7.28;3.42;;;;;;;14.94;72.48;93787.88;5067753;28;20086;-76
2021/09/08 07:12:55;;;;;;;7.18;2.80;;;;;;;15.05;73.21;93799.25;5068736;28;20452;-76
2021/09/08 07:15:21;;;;;;;7.00;2.85;;;;;;;15.06;73.31;93795.66;5069851;28;20048;-76
2021/09/08 07:17:48;;;;;;;7.47;3.60;;;;;;;15.06;72.59;93792.28;5069536;28;20048;-76
2021/09/08 07:20:15;;;;;;;7.57;3.10;;;;;;;15.07;70.49;93797.25;5069378;28;20048;-76
2021/09/08 07:22:42;;;;;;;7.53;2.70;;;;;;;15.04;70.18;93796.91;5069453;28;20048;-76
2021/09/08 07:25:11;;;;;;;7.05;3.00;;;;;;;15.22;71.34;93801.97;5069759;28;20072;-76
2021/09/08 07:27:38;;;;;;;6.57;3.08;;;;;;;15.43;69.96;93805.03;5069640;28;20044;-76
2021/09/08 07:30:06;;;;;;;5.18;2.63;;;;;;;15.44;68.23;93800.63;5069207;28;20416;-76
2021/09/08 07:32:33;;;;;;;6.85;2.72;;;;;;;15.57;67.23;93812.56;5069276;28;20101;-76
2021/09/08 07:35:00;;;;;;;4.07;2.00;;;;;;;15.37;65.07;93808.53;5069183;28;20527;-77
2021/09/08 07:37:27;;;;;;;4.78;2.33;;;;;;;15.44;65.38;93821.34;5069403;28;20048;-76
2021/09/08 07:39:54;;;;;;;7.35;2.28;;;;;;;15.47;64.54;93808.72;5069118;28;20049;-76
2021/09/08 07:42:23;;;;;;;5.68;2.13;;;;;;;15.56;64.33;93818.75;5068726;28;20048;-76
2021/09/08 07:44:49;;;;;;;9.82;2.85;;;;;;;15.57;65.69;93812.56;5069589;28;20044;-76
2021/09/08 07:47:16;;;;;;;9.55;2.30;;;;;;;15.96;65.52;93810.31;5069488;28;20048;-77
2021/09/08 07:49:43;;;;;;;4.15;2.45;;;;;;;16.23;64.55;93817.59;5069318;28;20048;-77
2021/09/08 07:52:10;;;;;;;6.90;2.72;;;;;;;16.23;62.53;93816.78;5069297;28;20061;-76
2021/09/08 07:54:37;;;;;;;4.60;2.10;;;;;;;16.27;64.14;93812.72;5069461;28;20098;-76
2021/09/08 07:57:04;;;;;;;4.60;1.95;;;;;;;16.33;60.52;93829.16;5069297;28;20055;-77
2021/09/08 07:59:32;;;;;;;4.00;2.03;;;;;;;16.34;60.49;93818.56;5069019;28;20588;-77
2021/09/08 08:01:59;;;;;;;3.70;2.20;;;;;;;16.37;61.50;93823.28;5069060;28;20052;-77
2021/09/08 08:04:26;;;;;;;5.90;2.58;;;;;;;16.14;60.13;93819.75;5068637;28;20056;-77
2021/09/08 08:06:52;;;;;;;5.80;2.67;;;;;;;16.30;58.64;93820.06;5069070;28;20048;-76
2021/09/08 08:09:19;;;;;;;6.30;1.77;;;;;;;15.93;57.91;93826.31;5068472;28;20396;-76
2021/09/08 08:11:46;;;;;;;7.15;1.88;;;;;;;15.90;59.00;93811.19;5068522;28;20045;-77
2021/09/08 08:14:13;;;;;;;3.67;1.70;;;;;;;15.96;57.69;93804.34;5069145;28;20060;-76
2021/09/08 08:16:41;;;;;;;3.28;2.00;;;;;;;16.58;58.93;93805.53;5069183;28;20568;-76
2021/09/08 08:19:08;;;;;;;7.35;1.83;;;;;;;16.87;57.49;93800.31;5068897;28;20489;-76
2021/09/08 08:21:35;;;;;;;4.68;1.70;;;;;;;16.59;55.77;93829.63;5069087;28;20048;-77
2021/09/08 08:24:02;;;;;;;4.97;1.67;;;;;;;16.52;55.54;93829.78;5068773;28;20551;-76
2021/09/08 08:26:29;;;;;;;3.92;1.88;;;;;;;16.69;56.07;93817.66;5068791;28;20102;-76
2021/09/08 08:28:56;;;;;;;4.68;1.58;;;;;;;16.65;54.70;93829.50;5069193;28;20045;-77
2021/09/08 08:31:23;;;;;;;4.07;1.92;;;;;;;16.08;56.42;93812.88;5068726;28;20143;-76
2021/09/08 08:33:51;;;;;;;6.47;1.90;;;;;;;16.11;55.98;93835.75;5069038;28;20054;-77
2021/09/08 08:36:18;;;;;;;3.78;1.92;;;;;;;15.86;57.53;93834.19;5072134;28;20044;-76
2021/09/08 08:38:45;;;;;;;3.22;1.73;;;;;;;15.70;58.39;93814.16;5072742;28;20075;-76
2021/09/08 08:41:13;;;;;;;3.75;1.90;;;;;;;16.15;58.46;93826.50;5072469;28;20044;-77
2021/09/08 08:43:48;;;;;;;6.30;2.33;;;;;;;15.85;58.58;93809.28;5072952;28;20507;-77
2021/09/08 08:46:15;;;;;;;10.43;2.30;;;;;;;16.03;57.76;93823.16;5072755;28;20421;-76
2021/09/08 08:48:45;;;;;;;7.78;1.85;;;;;;;16.00;58.95;93831.38;5072482;28;20384;-76
2021/09/08 08:51:13;;;;;;;6.57;1.98;;;;;;;16.05;58.62;93831.47;5072831;28;20046;-76
2021/09/08 08:53:49;;;;;;;3.28;2.08;;;;;;;16.13;58.51;93836.31;5072357;28;20493;-77
2021/09/08 08:56:21;;;;;;;5.72;2.03;;;;;;;16.01;59.12;93822.56;5072625;28;20097;-76
2021/09/08 08:58:48;;;;;;;5.07;1.95;;;;;;;15.97;60.26;93814.47;5072780;28;20053;-76
2021/09/08 09:01:20;;;;;;;5.20;2.00;;;;;;;16.41;59.79;93821.81;5073009;28;20052;-76
2021/09/08 09:04:13;;;;;;;6.82;2.03;;;;;;;16.37;57.68;93822.50;5071929;28;20048;-77
2021/09/08 09:06:48;;;;;;;7.22;2.33;;;;;;;16.56;58.52;93825.69;5071403;28;20052;-77
2021/09/08 09:09:18;;;;;;;5.35;2.03;;;;;;;16.35;56.96;93809.78;5072449;28;20174;-77
2021/09/08 09:11:47;;;;;;;5.45;2.00;;;;;;;16.55;57.81;93805.97;5072602;28;20060;-77
2021/09/08 09:14:16;;;;;;;4.35;1.95;;;;;;;16.79;57.13;93804.06;5072459;28;20048;-76
2021/09/08 09:16:49;;;;;;;5.05;1.98;;;;;;;17.12;55.84;93806.94;5072360;28;20713;-77
2021/09/08 09:19:15;;;;;;;5.13;1.75;;;;;;;17.71;55.19;93804.94;5072258;28;20048;-76
2021/09/08 09:21:44;;;;;;;4.22;1.95;;;;;;;18.16;54.82;93808.41;5072180;28;20082;-77
2021/09/08 09:24:10;;;;;;;5.50;1.85;;;;;;;18.52;52.93;93808.03;5071994;28;20110;-77
2021/09/08 09:26:40;;;;;;;4.57;1.70;;;;;;;18.42;52.54;93796.47;5071896;28;20044;-77
2021/09/08 09:29:08;;;;;;;3.92;1.90;;;;;;;18.33;51.48;93803.13;5071556;28;20059;-77
2021/09/08 09:31:50;;;;;;;3.67;1.85;;;;;;;18.26;52.31;93792.13;5071823;28;20049;-78
2021/09/08 09:34:17;;;;;;;3.38;1.60;;;;;;;18.35;51.16;93789.88;5071747;28;20049;-77
2021/09/08 09:36:45;;;;;;;5.32;1.40;;;;;;;18.68;51.14;93790.75;5071774;28;20056;-76
2021/09/08 09:39:12;;;;;;;10.52;1.85;;;;;;;19.10;51.15;93791.91;5064320;28;20490;-77
2021/09/08 09:41:39;;;;;;;7.05;2.63;;;;;;;18.66;52.37;93796.19;5060418;28;20040;-77
2021/09/08 09:44:07;;;;;;;4.15;1.80;;;;;;;18.54;52.19;93774.72;5062138;28;20087;-77
2021/09/08 09:46:33;;;;;;;6.05;1.48;;;;;;;18.73;50.43;93790.00;5059928;28;20156;-77
2021/09/08 09:49:02;;;;;;;8.77;2.42;;;;;;;18.59;49.92;93781.78;5060202;28;20052;-77
2021/09/08 09:51:29;;;;;;;4.47;2.13;;;;;;;18.37;50.38;93775.59;5055898;28;20060;-77
2021/09/08 09:53:57;;;;;;;4.68;1.95;;;;;;;18.83;49.48;93775.28;5058804;28;20055;-76
2021/09/08 09:56:24;;;;;;;3.13;1.63;;;;;;;18.54;48.41;93772.94;5061930;28;20449;-77
2021/09/08 09:58:52;;;;;;;3.42;1.60;;;;;;;18.87;50.13;93769.56;5061766;28;20045;-77
2021/09/08 10:01:21;;;;;;;2.90;1.30;;;;;;;18.93;47.23;93760.78;5059917;28;20414;-76
2021/09/08 10:03:48;;;;;;;3.83;1.85;;;;;;;19.19;48.95;93780.00;5060687;28;20044;-76
2021/09/08 10:06:15;;;;;;;4.70;1.30;;;;;;;19.48;47.91;93758.84;5059240;28;20041;-76
2021/09/08 10:08:46;;;;;;;4.93;1.60;;;;;;;19.31;45.87;93760.81;5058848;28;20048;-77
2021/09/08 10:11:23;;;;;;;3.25;1.38;;;;;;;19.15;45.29;93746.88;5061171;28;20048;-77
2021/09/08 10:13:55;;;;;;;3.75;1.63;;;;;;;19.18;43.13;93756.81;5061407;28;20053;-77
2021/09/08 10:16:23;;;;;;;5.75;1.33;;;;;;;19.70;42.81;93754.50;5060418;28;20049;-76
2021/09/08 10:18:51;;;;;;;5.07;1.40;;;;;;;19.72;40.72;93760.28;5059909;28;20055;-77
2021/09/08 10:21:20;;;;;;;2.95;1.20;;;;;;;19.32;39.67;93757.97;5055588;28;20049;-77
2021/09/08 10:23:55;;;;;;;6.25;1.42;;;;;;;19.62;40.50;93725.31;5050633;28;20449;-79
2021/09/08 10:26:29;;;;;;;6.55;1.13;;;;;;;19.90;37.32;93744.19;5050667;28;20517;-77
2021/09/08 10:29:05;;;;;;;2.60;1.15;;;;;;;20.05;38.13;93732.28;5051173;28;20136;-77
2021/09/08 10:31:32;;;;;;;5.15;1.30;;;;;;;19.61;37.69;93749.78;5067440;28;20555;-77
2021/09/08 10:33:59;;;;;;;2.53;1.08;;;;;;;19.74;37.50;93732.13;5070712;28;20052;-77
2021/09/08 10:36:26;;;;;;;3.95;1.02;;;;;;;19.96;35.66;93752.03;5072630;28;20040;-77
2021/09/08 10:39:09;;;;;;;1.80;0.82;;;;;;;19.85;36.46;93749.38;5067711;28;20052;-76
2021/09/08 10:41:43;;;;;;;3.30;1.00;;;;;;;19.71;37.02;93735.22;5070550;28;20127;-77
2021/09/08 10:44:11;;;;;;;3.15;1.08;;;;;;;19.52;38.55;93747.94;5070447;28;20056;-76
2021/09/08 10:46:57;;;;;;;3.88;0.93;;;;;;;19.59;39.64;93719.81;5070465;28;20048;-76
2021/09/08 10:49:46;;;;;;;2.42;0.80;;;;;;;19.49;37.17;93744.78;5084887;28;20052;-76
2021/09/08 10:52:15;;;;;;;2.78;1.02;;;;;;;19.20;39.14;93742.50;5090510;28;20414;-77
2021/09/08 10:55:15;;;;;;;5.35;1.33;;;;;;;19.57;39.12;93721.88;5090497;28;20110;-78
2021/09/08 10:58:02;;;;;;;4.63;1.15;;;;;;;19.98;39.09;93736.94;5089684;28;20051;-77
2021/09/08 11:00:36;;;;;;;5.57;1.50;;;;;;;19.74;38.45;93727.72;5090339;28;20048;-76
2021/09/08 11:03:04;;;;;;;6.97;1.55;;;;;;;19.79;38.96;93739.16;5090426;28;20563;-77
2021/09/08 11:05:31;;;;;;;2.30;1.20;;;;;;;19.52;40.15;93746.09;5090204;28;20420;-77
2021/09/08 11:07:58;;;;;;;7.55;2.00;;;;;;;19.60;39.52;93739.63;5089975;28;20047;-77
2021/09/08 11:10:27;;;;;;;3.08;1.40;;;;;;;19.44;41.07;93739.53;5090119;28;20048;-77
2021/09/08 11:12:57;;;;;;;3.20;1.30;;;;;;;19.12;41.94;93708.34;5089831;28;20048;-77
2021/09/08 11:15:32;;;;;;;9.15;1.33;;;;;;;19.16;42.64;93733.63;5089958;28;20051;-76
2021/09/08 11:17:59;;;;;;;2.60;1.23;;;;;;;18.81;43.96;93733.09;5089793;28;20059;-76
2021/09/08 11:20:27;;;;;;;6.30;1.58;;;;;;;19.00;44.26;93731.91;5089633;28;20055;-77
2021/09/08 11:23:02;;;;;;;7.93;3.05;;;;;;;18.87;44.61;93731.31;5090013;28;20048;-77
2021/09/08 11:25:31;;;;;;;3.50;1.45;;;;;;;19.05;45.57;93726.78;5078620;28;20059;-76
2021/09/08 11:28:00;;;;;;;2.90;1.45;;;;;;;18.81;45.15;93714.09;5069621;28;20048;-77
2021/09/08 11:30:31;;;;;;;3.47;1.25;;;;;;;18.95;44.65;93683.22;5069237;28;20047;-77
2021/09/08 11:33:00;;;;;;;3.50;1.70;;;;;;;19.12;44.20;93703.13;5065371;28;20133;-77